sensor_id;sensor_type;location;lat;lon;timestamp;pressure;altitude;pressure_sealevel;temperature;humidity
30110;BME280;14965;50.660;13.226;2023-08-31T00:00:49;94123.34;;;11.86;100.00
30110;BME280;14965;50.660;13.226;2023-08-31T00:03:15;94130.25;;;11.81;100.00
30110;BME280;14965;50.660;13.226;2023-08-31T00:05:43;94135.19;;;11.77;100.00
30110;BME280;14965;50.660;13.226;2023-08-31T00:08:10;94135.81;;;11.72;100.00
30110;BME280;14965;50.660;13.226;2023-08-31T00:10:37;94146.13;;;11.71;100.00
30110;BME280;14965;50.660;13.226;2023-08-31T00:13:04;94137.34;;;11.73;100.00
30110;BME280;14965;50.660;13.226;2023-08-31T00:15:30;94133.66;;;11.76;100.00
30110;BME280;14965;50.660;13.226;2023-08-31T00:17:56;94143.81;;;11.79;100.00
30110;BME280;14965;50.660;13.226;2023-08-31T00:20:22;94145.63;;;11.82;100.00
30110;BME280;14965;50.660;13.226;2023-08-31T00:22:48;94137.94;;;11.86;100.00
30110;BME280;14965;50.660;13.226;2023-08-31T00:25:16;94144.41;;;11.92;100.00
30110;BME280;14965;50.660;13.226;2023-08-31T00:27:41;94149.78;;;11.96;100.00
30110;BME280;14965;50.660;13.226;2023-08-31T00:30:09;94149.16;;;12.01;100.00
30110;BME280;14965;50.660;13.226;2023-08-31T00:32:35;94148.50;;;12.06;100.00
30110;BME280;14965;50.660;13.226;2023-08-31T00:35:01;94148.03;;;12.08;100.00
30110;BME280;14965;50.660;13.226;2023-08-31T00:37:27;94144.19;;;12.14;100.00
30110;BME280;14965;50.660;13.226;2023-08-31T00:39:53;94148.03;;;12.17;100.00
30110;BME280;14965;50.660;13.226;2023-08-31T00:42:20;94121.13;;;12.17;100.00
30110;BME280;14965;50.660;13.226;2023-08-31T00:44:46;94127.91;;;12.16;100.00
30110;BME280;14965;50.660;13.226;2023-08-31T00:47:12;94131.28;;;12.11;100.00
30110;BME280;14965;50.660;13.226;2023-08-31T00:49:39;94135.16;;;12.05;100.00
30110;BME280;14965;50.660;13.226;2023-08-31T00:52:05;94138.53;;;12.00;100.00
30110;BME280;14965;50.660;13.226;2023-08-31T00:54:32;94140.09;;;12.01;100.00
30110;BME280;14965;50.660;13.226;2023-08-31T00:56:58;94139.59;;;12.02;100.00
30110;BME280;14965;50.660;13.226;2023-08-31T00:59:25;94132.84;;;12.03;100.00
30110;BME280;14965;50.660;13.226;2023-08-31T01:02:05;94140.38;;;12.03;100.00
30110;BME280;14965;50.660;13.226;2023-08-31T01:04:56;94135.31;;;12.01;100.00
30110;BME280;14965;50.660;13.226;2023-08-31T01:07:34;94139.31;;;12.00;100.00
30110;BME280;14965;50.660;13.226;2023-08-31T01:10:13;94139.00;;;11.98;100.00
30110;BME280;14965;50.660;13.226;2023-08-31T01:12:49;94139.75;;;11.99;100.00
30110;BME280;14965;50.660;13.226;2023-08-31T01:15:18;94151.91;;;12.01;100.00
30110;BME280;14965;50.660;13.226;2023-08-31T01:17:47;94155.59;;;11.98;100.00
30110;BME280;14965;50.660;13.226;2023-08-31T01:20:22;94145.00;;;11.96;100.00
30110;BME280;14965;50.660;13.226;2023-08-31T01:23:00;94148.06;;;11.99;100.00
30110;BME280;14965;50.660;13.226;2023-08-31T01:25:30;94155.13;;;12.00;100.00
30110;BME280;14965;50.660;13.226;2023-08-31T01:27:58;94151.44;;;12.03;100.00
30110;BME280;14965;50.660;13.226;2023-08-31T01:30:24;94136.38;;;12.04;100.00
30110;BME280;14965;50.660;13.226;2023-08-31T01:32:50;94142.97;;;12.06;100.00
30110;BME280;14965;50.660;13.226;2023-08-31T01:35:18;94148.50;;;12.06;100.00
30110;BME280;14965;50.660;13.226;2023-08-31T01:37:48;94138.22;;;12.07;100.00
30110;BME280;14965;50.660;13.226;2023-08-31T01:40:20;94142.81;;;12.10;100.00
30110;BME280;14965;50.660;13.226;2023-08-31T01:42:50;94132.03;;;12.12;100.00
30110;BME280;14965;50.660;13.226;2023-08-31T01:45:20;94139.72;;;12.17;100.00
30110;BME280;14965;50.660;13.226;2023-08-31T01:47:46;94131.72;;;12.19;100.00
30110;BME280;14965;50.660;13.226;2023-08-31T01:50:12;94127.53;;;12.24;100.00
30110;BME280;14965;50.660;13.226;2023-08-31T01:52:38;94129.38;;;12.27;100.00
30110;BME280;14965;50.660;13.226;2023-08-31T01:55:05;94125.38;;;12.28;100.00
30110;BME280;14965;50.660;13.226;2023-08-31T01:57:32;94137.22;;;12.28;100.00
30110;BME280;14965;50.660;13.226;2023-08-31T01:59:59;94138.44;;;12.27;100.00
30110;BME280;14965;50.660;13.226;2023-08-31T02:02:25;94132.16;;;12.27;100.00
30110;BME280;14965;50.660;13.226;2023-08-31T02:04:51;94125.53;;;12.24;100.00
30110;BME280;14965;50.660;13.226;2023-08-31T02:07:17;94133.56;;;12.22;100.00
30110;BME280;14965;50.660;13.226;2023-08-31T02:09:43;94130.47;;;12.20;100.00
30110;BME280;14965;50.660;13.226;2023-08-31T02:12:09;94141.53;;;12.20;100.00
30110;BME280;14965;50.660;13.226;2023-08-31T02:14:35;94138.50;;;12.18;100.00
30110;BME280;14965;50.660;13.226;2023-08-31T02:17:02;94130.66;;;12.16;100.00
30110;BME280;14965;50.660;13.226;2023-08-31T02:19:28;94130.34;;;12.14;100.00
30110;BME280;14965;50.660;13.226;2023-08-31T02:21:54;94142.81;;;12.10;100.00
30110;BME280;14965;50.660;13.226;2023-08-31T02:24:20;94143.47;;;12.05;100.00
30110;BME280;14965;50.660;13.226;2023-08-31T02:26:47;94144.38;;;12.02;100.00
30110;BME280;14965;50.660;13.226;2023-08-31T02:29:13;94147.63;;;12.00;100.00
30110;BME280;14965;50.660;13.226;2023-08-31T02:31:39;94144.53;;;11.98;100.00
30110;BME280;14965;50.660;13.226;2023-08-31T02:34:06;94142.25;;;11.96;100.00
30110;BME280;14965;50.660;13.226;2023-08-31T02:36:32;94143.66;;;11.92;100.00
30110;BME280;14965;50.660;13.226;2023-08-31T02:38:58;94140.28;;;11.88;100.00
30110;BME280;14965;50.660;13.226;2023-08-31T02:41:24;94152.53;;;11.87;100.00
30110;BME280;14965;50.660;13.226;2023-08-31T02:43:52;94154.56;;;11.86;100.00
30110;BME280;14965;50.660;13.226;2023-08-31T02:46:18;94157.03;;;11.84;100.00
30110;BME280;14965;50.660;13.226;2023-08-31T02:48:44;94153.91;;;11.82;100.00
30110;BME280;14965;50.660;13.226;2023-08-31T02:51:12;94171.75;;;11.81;100.00
30110;BME280;14965;50.660;13.226;2023-08-31T02:53:38;94167.91;;;11.79;100.00
30110;BME280;14965;50.660;13.226;2023-08-31T02:56:04;94172.06;;;11.74;100.00
30110;BME280;14965;50.660;13.226;2023-08-31T02:58:30;94177.94;;;11.67;100.00
30110;BME280;14965;50.660;13.226;2023-08-31T03:01:06;94188.06;;;11.61;100.00
30110;BME280;14965;50.660;13.226;2023-08-31T03:03:31;94192.69;;;11.55;100.00
30110;BME280;14965;50.660;13.226;2023-08-31T03:05:57;94187.31;;;11.51;100.00
30110;BME280;14965;50.660;13.226;2023-08-31T03:08:25;94197.75;;;11.47;100.00
30110;BME280;14965;50.660;13.226;2023-08-31T03:10:50;94199.56;;;11.41;100.00
30110;BME280;14965;50.660;13.226;2023-08-31T03:13:16;94193.91;;;11.35;100.00
30110;BME280;14965;50.660;13.226;2023-08-31T03:15:42;94184.69;;;11.29;100.00
30110;BME280;14965;50.660;13.226;2023-08-31T03:18:08;94189.47;;;11.29;100.00
30110;BME280;14965;50.660;13.226;2023-08-31T03:20:34;94195.28;;;11.31;100.00
30110;BME280;14965;50.660;13.226;2023-08-31T03:23:00;94206.97;;;11.35;100.00
30110;BME280;14965;50.660;13.226;2023-08-31T03:25:28;94207.25;;;11.37;100.00
30110;BME280;14965;50.660;13.226;2023-08-31T03:27:54;94211.56;;;11.38;100.00
30110;BME280;14965;50.660;13.226;2023-08-31T03:30:20;94215.88;;;11.39;100.00
30110;BME280;14965;50.660;13.226;2023-08-31T03:32:46;94205.09;;;11.41;100.00
30110;BME280;14965;50.660;13.226;2023-08-31T03:35:12;94213.41;;;11.41;100.00
30110;BME280;14965;50.660;13.226;2023-08-31T03:37:38;94213.41;;;11.41;100.00
30110;BME280;14965;50.660;13.226;2023-08-31T03:40:05;94213.41;;;11.41;100.00
30110;BME280;14965;50.660;13.226;2023-08-31T03:42:33;94216.00;;;11.44;100.00
30110;BME280;14965;50.660;13.226;2023-08-31T03:44:59;94213.56;;;11.46;100.00
30110;BME280;14965;50.660;13.226;2023-08-31T03:47:25;94215.56;;;11.46;100.00
30110;BME280;14965;50.660;13.226;2023-08-31T03:49:51;94216.63;;;11.48;100.00
30110;BME280;14965;50.660;13.226;2023-08-31T03:52:17;94219.25;;;11.52;100.00
30110;BME280;14965;50.660;13.226;2023-08-31T03:54:43;94218.00;;;11.53;100.00
30110;BME280;14965;50.660;13.226;2023-08-31T03:57:08;94224.34;;;11.54;100.00
30110;BME280;14965;50.660;13.226;2023-08-31T03:59:36;94231.06;;;11.53;100.00
30110;BME280;14965;50.660;13.226;2023-08-31T04:02:02;94235.53;;;11.50;100.00
30110;BME280;14965;50.660;13.226;2023-08-31T04:04:28;94231.06;;;11.53;100.00
30110;BME280;14965;50.660;13.226;2023-08-31T04:06:53;94228.31;;;11.53;100.00
30110;BME280;14965;50.660;13.226;2023-08-31T04:09:19;94238.31;;;11.50;100.00
30110;BME280;14965;50.660;13.226;2023-08-31T04:11:46;94236.94;;;11.45;100.00
30110;BME280;14965;50.660;13.226;2023-08-31T04:14:12;94237.22;;;11.47;100.00
30110;BME280;14965;50.660;13.226;2023-08-31T04:16:39;94235.53;;;11.50;100.00
30110;BME280;14965;50.660;13.226;2023-08-31T04:19:05;94238.94;;;11.54;100.00
30110;BME280;14965;50.660;13.226;2023-08-31T04:21:31;94234.94;;;11.55;100.00
30110;BME280;14965;50.660;13.226;2023-08-31T04:23:57;94238.47;;;11.56;100.00
30110;BME280;14965;50.660;13.226;2023-08-31T04:26:22;94236.47;;;11.56;100.00
30110;BME280;14965;50.660;13.226;2023-08-31T04:28:48;94241.38;;;11.61;100.00
30110;BME280;14965;50.660;13.226;2023-08-31T04:31:14;94241.22;;;11.65;100.00
30110;BME280;14965;50.660;13.226;2023-08-31T04:33:41;94244.31;;;11.67;100.00
30110;BME280;14965;50.660;13.226;2023-08-31T04:36:07;94255.06;;;11.65;100.00
30110;BME280;14965;50.660;13.226;2023-08-31T04:38:34;94255.19;;;11.61;99.66
30110;BME280;14965;50.660;13.226;2023-08-31T04:41:01;94255.81;;;11.56;99.40
30110;BME280;14965;50.660;13.226;2023-08-31T04:43:27;94264.72;;;11.51;99.39
30110;BME280;14965;50.660;13.226;2023-08-31T04:45:53;94263.97;;;11.51;99.88
30110;BME280;14965;50.660;13.226;2023-08-31T04:48:20;94262.25;;;11.53;99.85
30110;BME280;14965;50.660;13.226;2023-08-31T04:50:47;94261.97;;;11.51;99.94
30110;BME280;14965;50.660;13.226;2023-08-31T04:53:13;94264.72;;;11.51;100.00
30110;BME280;14965;50.660;13.226;2023-08-31T04:55:39;94266.59;;;11.54;99.97
30110;BME280;14965;50.660;13.226;2023-08-31T04:58:05;94270.25;;;11.60;100.00
30110;BME280;14965;50.660;13.226;2023-08-31T05:00:31;94268.72;;;11.68;99.76
30110;BME280;14965;50.660;13.226;2023-08-31T05:02:57;94274.72;;;11.76;99.87
30110;BME280;14965;50.660;13.226;2023-08-31T05:05:23;94276.28;;;11.86;99.60
30110;BME280;14965;50.660;13.226;2023-08-31T05:07:50;94282.75;;;11.92;99.40
30110;BME280;14965;50.660;13.226;2023-08-31T05:10:16;94281.06;;;11.95;98.85
30110;BME280;14965;50.660;13.226;2023-08-31T05:12:42;94287.97;;;12.00;98.94
30110;BME280;14965;50.660;13.226;2023-08-31T05:15:09;94287.81;;;12.03;98.97
30110;BME280;14965;50.660;13.226;2023-08-31T05:17:35;94287.06;;;12.03;98.76
30110;BME280;14965;50.660;13.226;2023-08-31T05:20:01;94288.13;;;12.05;98.66
30110;BME280;14965;50.660;13.226;2023-08-31T05:22:27;94285.19;;;12.00;97.40
30110;BME280;14965;50.660;13.226;2023-08-31T05:24:54;94295.97;;;11.98;97.46
30110;BME280;14965;50.660;13.226;2023-08-31T05:27:21;94290.44;;;11.98;97.21
30110;BME280;14965;50.660;13.226;2023-08-31T05:29:46;94293.22;;;11.98;97.45
30110;BME280;14965;50.660;13.226;2023-08-31T05:32:12;94304.44;;;11.94;97.99
30110;BME280;14965;50.660;13.226;2023-08-31T05:34:38;94300.91;;;11.93;98.50
30110;BME280;14965;50.660;13.226;2023-08-31T05:37:04;94311.34;;;11.89;98.47
30110;BME280;14965;50.660;13.226;2023-08-31T05:39:30;94321.78;;;11.85;98.88
30110;BME280;14965;50.660;13.226;2023-08-31T05:41:58;94311.94;;;11.75;99.95
30110;BME280;14965;50.660;13.226;2023-08-31T05:44:24;94312.38;;;11.55;100.00
30110;BME280;14965;50.660;13.226;2023-08-31T05:46:50;94322.03;;;11.41;100.00
30110;BME280;14965;50.660;13.226;2023-08-31T05:49:15;94331.22;;;11.38;100.00
30110;BME280;14965;50.660;13.226;2023-08-31T05:51:41;94329.06;;;11.33;100.00
30110;BME280;14965;50.660;13.226;2023-08-31T05:54:07;94333.34;;;11.34;100.00
30110;BME280;14965;50.660;13.226;2023-08-31T05:56:33;94334.88;;;11.35;100.00
30110;BME280;14965;50.660;13.226;2023-08-31T05:59:01;94336.41;;;11.36;100.00
30110;BME280;14965;50.660;13.226;2023-08-31T06:01:26;94332.44;;;11.37;100.00
30110;BME280;14965;50.660;13.226;2023-08-31T06:03:52;94338.00;;;11.46;100.00
30110;BME280;14965;50.660;13.226;2023-08-31T06:06:18;94331.84;;;11.52;100.00
30110;BME280;14965;50.660;13.226;2023-08-31T06:08:44;94332.78;;;11.58;100.00
30110;BME280;14965;50.660;13.226;2023-08-31T06:11:10;94336.97;;;11.62;100.00
30110;BME280;14965;50.660;13.226;2023-08-31T06:13:37;94336.22;;;11.71;100.00
30110;BME280;14965;50.660;13.226;2023-08-31T06:16:04;94352.63;;;11.65;100.00
30110;BME280;14965;50.660;13.226;2023-08-31T06:18:30;94351.56;;;11.63;100.00
30110;BME280;14965;50.660;13.226;2023-08-31T06:20:56;94353.84;;;11.64;100.00
30110;BME280;14965;50.660;13.226;2023-08-31T06:23:23;94354.94;;;11.67;100.00
30110;BME280;14965;50.660;13.226;2023-08-31T06:25:48;94355.44;;;11.75;100.00
30110;BME280;14965;50.660;13.226;2023-08-31T06:28:14;94350.50;;;11.79;100.00
30110;BME280;14965;50.660;13.226;2023-08-31T06:30:41;94359.63;;;11.88;100.00
30110;BME280;14965;50.660;13.226;2023-08-31T06:33:08;94356.84;;;11.98;100.00
30110;BME280;14965;50.660;13.226;2023-08-31T06:35:34;94360.53;;;12.04;100.00
30110;BME280;14965;50.660;13.226;2023-08-31T06:38:00;94363.91;;;12.08;100.00
30110;BME280;14965;50.660;13.226;2023-08-31T06:40:26;94363.78;;;12.20;100.00
30110;BME280;14965;50.660;13.226;2023-08-31T06:42:52;94373.31;;;12.29;100.00
30110;BME280;14965;50.660;13.226;2023-08-31T06:45:18;94369.78;;;12.37;100.00
30110;BME280;14965;50.660;13.226;2023-08-31T06:47:44;94367.78;;;12.38;100.00
30110;BME280;14965;50.660;13.226;2023-08-31T06:50:11;94384.22;;;12.32;100.00
30110;BME280;14965;50.660;13.226;2023-08-31T06:52:37;94378.56;;;12.27;100.00
30110;BME280;14965;50.660;13.226;2023-08-31T06:55:03;94383.16;;;12.20;100.00
30110;BME280;14965;50.660;13.226;2023-08-31T06:57:29;94381.78;;;12.16;100.00
30110;BME280;14965;50.660;13.226;2023-08-31T06:59:55;94389.63;;;12.17;100.00
30110;BME280;14965;50.660;13.226;2023-08-31T07:02:21;94385.94;;;12.30;100.00
30110;BME280;14965;50.660;13.226;2023-08-31T07:04:47;94377.63;;;12.39;100.00
30110;BME280;14965;50.660;13.226;2023-08-31T07:07:15;94386.06;;;12.54;100.00
30110;BME280;14965;50.660;13.226;2023-08-31T07:09:42;94379.44;;;12.69;100.00
30110;BME280;14965;50.660;13.226;2023-08-31T07:12:08;94381.25;;;12.91;100.00
30110;BME280;14965;50.660;13.226;2023-08-31T07:14:34;94381.25;;;13.00;97.96
30110;BME280;14965;50.660;13.226;2023-08-31T07:17:00;94380.56;;;13.14;97.81
30110;BME280;14965;50.660;13.226;2023-08-31T07:19:26;94385.13;;;13.36;97.33
30110;BME280;14965;50.660;13.226;2023-08-31T07:21:52;94390.16;;;13.56;96.53
30110;BME280;14965;50.660;13.226;2023-08-31T07:24:19;94393.19;;;13.67;94.63
30110;BME280;14965;50.660;13.226;2023-08-31T07:26:45;94394.72;;;13.68;92.98
30110;BME280;14965;50.660;13.226;2023-08-31T07:29:11;94393.41;;;13.78;93.32
30110;BME280;14965;50.660;13.226;2023-08-31T07:31:37;94394.75;;;13.92;93.63
30110;BME280;14965;50.660;13.226;2023-08-31T07:34:03;94394.38;;;13.99;91.35
30110;BME280;14965;50.660;13.226;2023-08-31T07:36:29;94403.63;;;13.96;90.64
30110;BME280;14965;50.660;13.226;2023-08-31T07:38:55;94403.13;;;14.07;91.89
30110;BME280;14965;50.660;13.226;2023-08-31T07:41:23;94397.44;;;14.25;92.05
30110;BME280;14965;50.660;13.226;2023-08-31T07:43:49;94408.53;;;14.25;91.60
30110;BME280;14965;50.660;13.226;2023-08-31T07:46:15;94402.53;;;14.27;91.38
30110;BME280;14965;50.660;13.226;2023-08-31T07:48:41;94395.63;;;14.22;91.37
30110;BME280;14965;50.660;13.226;2023-08-31T07:51:07;94408.09;;;14.27;90.86
30110;BME280;14965;50.660;13.226;2023-08-31T07:53:34;94411.06;;;14.38;90.03
30110;BME280;14965;50.660;13.226;2023-08-31T07:56:00;94408.00;;;14.36;86.67
30110;BME280;14965;50.660;13.226;2023-08-31T07:58:27;94414.69;;;14.29;86.01
30110;BME280;14965;50.660;13.226;2023-08-31T08:00:53;94415.81;;;14.23;87.26
30110;BME280;14965;50.660;13.226;2023-08-31T08:03:20;94415.81;;;14.23;86.05
30110;BME280;14965;50.660;13.226;2023-08-31T08:05:46;94412.03;;;14.35;87.68
30110;BME280;14965;50.660;13.226;2023-08-31T08:08:12;94414.81;;;14.35;86.24
30110;BME280;14965;50.660;13.226;2023-08-31T08:10:38;94420.97;;;14.39;85.09
30110;BME280;14965;50.660;13.226;2023-08-31T08:13:04;94418.53;;;14.32;83.11
30110;BME280;14965;50.660;13.226;2023-08-31T08:15:32;94425.28;;;14.16;83.70
30110;BME280;14965;50.660;13.226;2023-08-31T08:17:58;94429.19;;;14.09;84.27
30110;BME280;14965;50.660;13.226;2023-08-31T08:20:24;94425.97;;;14.02;83.43
30110;BME280;14965;50.660;13.226;2023-08-31T08:22:50;94429.66;;;14.32;83.69
30110;BME280;14965;50.660;13.226;2023-08-31T08:25:16;94426.03;;;14.40;82.31
30110;BME280;14965;50.660;13.226;2023-08-31T08:27:42;94435.19;;;14.32;80.32
30110;BME280;14965;50.660;13.226;2023-08-31T08:30:08;94442.00;;;14.07;78.78
30110;BME280;14965;50.660;13.226;2023-08-31T08:32:35;94437.53;;;14.00;79.34
30110;BME280;14965;50.660;13.226;2023-08-31T08:35:01;94444.19;;;14.03;80.98
30110;BME280;14965;50.660;13.226;2023-08-31T08:37:28;94445.34;;;13.87;80.63
30110;BME280;14965;50.660;13.226;2023-08-31T08:39:53;94440.75;;;13.84;81.70
30110;BME280;14965;50.660;13.226;2023-08-31T08:42:24;94441.66;;;13.81;82.09
30110;BME280;14965;50.660;13.226;2023-08-31T08:44:50;94450.00;;;13.81;82.91
30110;BME280;14965;50.660;13.226;2023-08-31T08:47:17;94454.50;;;14.02;81.04
30110;BME280;14965;50.660;13.226;2023-08-31T08:49:44;94440.19;;;14.52;81.11
30110;BME280;14965;50.660;13.226;2023-08-31T08:52:12;94431.16;;;14.95;77.98
30110;BME280;14965;50.660;13.226;2023-08-31T08:54:38;94443.66;;;15.15;77.37
30110;BME280;14965;50.660;13.226;2023-08-31T08:57:04;94444.28;;;14.95;77.21
30110;BME280;14965;50.660;13.226;2023-08-31T08:59:31;94456.69;;;14.55;73.80
30110;BME280;14965;50.660;13.226;2023-08-31T09:01:57;94451.13;;;14.46;75.20
30110;BME280;14965;50.660;13.226;2023-08-31T09:04:23;94445.31;;;14.83;74.51
30110;BME280;14965;50.660;13.226;2023-08-31T09:06:52;94447.59;;;15.23;75.53
30110;BME280;14965;50.660;13.226;2023-08-31T09:09:17;94439.31;;;15.58;73.09
30110;BME280;14965;50.660;13.226;2023-08-31T09:11:45;94445.91;;;15.90;69.95
30110;BME280;14965;50.660;13.226;2023-08-31T09:14:14;94442.84;;;16.24;69.77
30110;BME280;14965;50.660;13.226;2023-08-31T09:16:44;94448.69;;;16.26;68.22
30110;BME280;14965;50.660;13.226;2023-08-31T09:19:18;94448.13;;;16.22;65.38
30110;BME280;14965;50.660;13.226;2023-08-31T09:21:45;94452.63;;;15.84;67.05
30110;BME280;14965;50.660;13.226;2023-08-31T09:24:13;94450.94;;;15.72;68.41
30110;BME280;14965;50.660;13.226;2023-08-31T09:26:39;94451.88;;;15.83;67.86
30110;BME280;14965;50.660;13.226;2023-08-31T09:29:06;94449.19;;;15.89;67.38
30110;BME280;14965;50.660;13.226;2023-08-31T09:31:32;94452.19;;;15.71;64.19
30110;BME280;14965;50.660;13.226;2023-08-31T09:33:58;94451.41;;;15.85;65.46
30110;BME280;14965;50.660;13.226;2023-08-31T09:36:24;94442.31;;;16.05;64.98
30110;BME280;14965;50.660;13.226;2023-08-31T09:38:50;94450.72;;;15.90;62.93
30110;BME280;14965;50.660;13.226;2023-08-31T09:41:17;94438.56;;;16.08;68.25
30110;BME280;14965;50.660;13.226;2023-08-31T09:43:43;94448.91;;;16.42;67.56
30110;BME280;14965;50.660;13.226;2023-08-31T09:46:09;94464.28;;;16.38;62.45
30110;BME280;14965;50.660;13.226;2023-08-31T09:48:38;94454.34;;;16.31;62.30
30110;BME280;14965;50.660;13.226;2023-08-31T09:51:07;94455.97;;;16.03;62.58
30110;BME280;14965;50.660;13.226;2023-08-31T09:53:37;94464.00;;;15.80;62.93
30110;BME280;14965;50.660;13.226;2023-08-31T09:56:05;94456.72;;;15.38;64.22
30110;BME280;14965;50.660;13.226;2023-08-31T09:58:33;94451.63;;;15.22;66.54
30110;BME280;14965;50.660;13.226;2023-08-31T10:00:59;94458.91;;;15.34;68.14
30110;BME280;14965;50.660;13.226;2023-08-31T10:03:27;94451.91;;;15.68;65.67
30110;BME280;14965;50.660;13.226;2023-08-31T10:05:55;94444.94;;;15.93;63.48
30110;BME280;14965;50.660;13.226;2023-08-31T10:08:21;94456.00;;;15.88;63.62
30110;BME280;14965;50.660;13.226;2023-08-31T10:10:47;94455.72;;;15.71;64.85
30110;BME280;14965;50.660;13.226;2023-08-31T10:13:14;94465.41;;;15.61;65.18
30110;BME280;14965;50.660;13.226;2023-08-31T10:15:44;94461.03;;;15.39;66.42
30110;BME280;14965;50.660;13.226;2023-08-31T10:18:10;94463.69;;;15.34;67.20
30110;BME280;14965;50.660;13.226;2023-08-31T10:20:36;94455.06;;;15.47;67.65
30110;BME280;14965;50.660;13.226;2023-08-31T10:23:03;94460.03;;;15.87;67.48
30110;BME280;14965;50.660;13.226;2023-08-31T10:26:00;94446.81;;;16.37;68.56
30110;BME280;14965;50.660;13.226;2023-08-31T10:28:27;94449.97;;;16.65;63.72
30110;BME280;14965;50.660;13.226;2023-08-31T10:31:02;94441.41;;;17.15;64.71
30110;BME280;14965;50.660;13.226;2023-08-31T10:33:31;94456.25;;;17.59;60.94
30110;BME280;14965;50.660;13.226;2023-08-31T10:35:59;94461.44;;;17.72;60.53
30110;BME280;14965;50.660;13.226;2023-08-31T10:38:28;94455.31;;;17.67;58.22
30110;BME280;14965;50.660;13.226;2023-08-31T10:41:18;94451.75;;;17.67;58.85
30110;BME280;14965;50.660;13.226;2023-08-31T10:43:45;94454.72;;;17.84;59.83
30110;BME280;14965;50.660;13.226;2023-08-31T10:46:28;94469.22;;;17.88;58.03
30110;BME280;14965;50.660;13.226;2023-08-31T10:48:55;94460.75;;;17.51;59.78
30110;BME280;14965;50.660;13.226;2023-08-31T10:51:23;94448.72;;;17.13;58.97
30110;BME280;14965;50.660;13.226;2023-08-31T10:53:51;94466.69;;;17.32;61.77
30110;BME280;14965;50.660;13.226;2023-08-31T10:56:17;94455.25;;;17.30;57.00
30110;BME280;14965;50.660;13.226;2023-08-31T10:58:57;94454.38;;;17.45;57.64
30110;BME280;14965;50.660;13.226;2023-08-31T11:01:53;94451.44;;;17.59;57.76
30110;BME280;14965;50.660;13.226;2023-08-31T11:04:20;94445.63;;;17.63;57.46
30110;BME280;14965;50.660;13.226;2023-08-31T11:06:46;94448.81;;;17.76;56.87
30110;BME280;14965;50.660;13.226;2023-08-31T11:09:19;94443.56;;;17.84;58.23
30110;BME280;14965;50.660;13.226;2023-08-31T11:11:45;94449.81;;;17.73;56.42
30110;BME280;14965;50.660;13.226;2023-08-31T11:14:11;94453.06;;;17.72;57.20
30110;BME280;14965;50.660;13.226;2023-08-31T11:16:38;94455.19;;;17.77;58.07
30110;BME280;14965;50.660;13.226;2023-08-31T11:19:05;94446.72;;;17.71;58.29
30110;BME280;14965;50.660;13.226;2023-08-31T11:21:32;94448.84;;;17.50;55.70
30110;BME280;14965;50.660;13.226;2023-08-31T11:23:58;94454.25;;;17.33;58.22
30110;BME280;14965;50.660;13.226;2023-08-31T11:26:25;94440.25;;;17.28;58.03
30110;BME280;14965;50.660;13.226;2023-08-31T11:28:51;94450.16;;;17.29;57.60
30110;BME280;14965;50.660;13.226;2023-08-31T11:31:23;94442.69;;;17.14;57.18
30110;BME280;14965;50.660;13.226;2023-08-31T11:33:49;94450.84;;;17.18;57.09
30110;BME280;14965;50.660;13.226;2023-08-31T11:36:17;94447.91;;;17.33;57.18
30110;BME280;14965;50.660;13.226;2023-08-31T11:38:43;94437.88;;;17.47;55.48
30110;BME280;14965;50.660;13.226;2023-08-31T11:41:10;94441.75;;;17.55;54.95
30110;BME280;14965;50.660;13.226;2023-08-31T11:43:36;94438.50;;;17.56;54.44
30110;BME280;14965;50.660;13.226;2023-08-31T11:46:03;94440.19;;;17.48;55.50
30110;BME280;14965;50.660;13.226;2023-08-31T11:48:30;94439.72;;;17.55;55.82
30110;BME280;14965;50.660;13.226;2023-08-31T11:50:56;94440.59;;;17.67;55.81
30110;BME280;14965;50.660;13.226;2023-08-31T11:53:24;94433.13;;;17.53;55.68
30110;BME280;14965;50.660;13.226;2023-08-31T11:55:53;94437.72;;;17.56;56.93
30110;BME280;14965;50.660;13.226;2023-08-31T11:58:19;94440.94;;;17.75;53.92
30110;BME280;14965;50.660;13.226;2023-08-31T12:00:45;94439.41;;;17.74;55.50
30110;BME280;14965;50.660;13.226;2023-08-31T12:03:11;94449.78;;;17.41;53.02
30110;BME280;14965;50.660;13.226;2023-08-31T12:05:47;94451.06;;;17.14;53.49
30110;BME280;14965;50.660;13.226;2023-08-31T12:08:13;94453.34;;;17.16;54.00
30110;BME280;14965;50.660;13.226;2023-08-31T12:10:42;94454.38;;;17.18;55.20
30110;BME280;14965;50.660;13.226;2023-08-31T12:13:09;94453.94;;;17.26;56.29
30110;BME280;14965;50.660;13.226;2023-08-31T12:15:35;94454.44;;;16.98;52.81
30110;BME280;14965;50.660;13.226;2023-08-31T12:18:07;94460.75;;;16.99;54.23
30110;BME280;14965;50.660;13.226;2023-08-31T12:20:33;94459.09;;;17.33;54.77
30110;BME280;14965;50.660;13.226;2023-08-31T12:22:59;94474.69;;;17.45;52.90
30110;BME280;14965;50.660;13.226;2023-08-31T12:25:27;94467.91;;;17.52;53.08
30110;BME280;14965;50.660;13.226;2023-08-31T12:27:54;94477.59;;;17.56;52.83
30110;BME280;14965;50.660;13.226;2023-08-31T12:30:20;94451.19;;;17.57;51.07
30110;BME280;14965;50.660;13.226;2023-08-31T12:32:46;94458.81;;;17.57;52.96
30110;BME280;14965;50.660;13.226;2023-08-31T12:35:12;94460.69;;;17.71;53.19
30110;BME280;14965;50.660;13.226;2023-08-31T12:37:38;94463.00;;;17.73;51.13
30110;BME280;14965;50.660;13.226;2023-08-31T12:40:05;94477.31;;;17.54;50.04
30110;BME280;14965;50.660;13.226;2023-08-31T12:42:32;94473.41;;;17.46;52.99
30110;BME280;14965;50.660;13.226;2023-08-31T12:44:59;94472.59;;;17.40;55.71